Atwater, New York
Current Conditions -  °F | °C
As of 9:56 AM on Thursday 30 Oct 2014 (Local Time) from KITH Reporting Station
Overcast Overcast  
Wind Chill:   Ceiling: 2000
Heat Index:   Visibility: 10mi
Dew Point:   Wind: 8mph
Humidity: 82%   Direction: 320°NW
Pressure: 30.04"   Gusts: NA
Location:  42.6734°N, 76.6263°W
Report Text: KITH 301356Z 32007KT 10SM OVC020 06/03 A3004 RMK AO2 T00610033 RAB39E50 P0000 SLP179
Loading
Personal Weather Stations






























Interactive Weather Map
Tropical Storm Tracking
New forecast layout! Learn more

10-Day Weather Forecast

Advertisements
Track Severe Weather on mobile